Capstead Mortgage Corp (CMO) Latest Bloomsberg Price


Mffais Ranking #613 Overall / #9 Industry
Industry: Mortgage Finance

Number of Companies: 143 (Ranking #1219 Overall/#11 Industry)
Inflow: $ 23,418 (K) (Ranking #1683 Overall/#21 Industry)
Outflow: $ -18,543 (K)
Mffais Flow: $ 4,874 (K) (Ranking #613 Overall/#9 Industry)


Receive a FREE weekly executive review of stocks moving into the top 10, taking the top industy spot or moving up within their industry. Sent directly to your Inbox every Saturday. Sign up today and get last week's review immediately sent to you.

We value and respect your privacy. Please read our Terms and Conditions which states our firm commitment to your privacy. Your email address will not be shared with a third party, nor will it be sold or used for purposes other than subscription for the weekly review.

Owner CPOR Shares Action Qty Chg Invested (K) Total Current Value (K)
Thrivent Financial For Lutherans 2016-09-30 906,140 Added More 858,970 $ 8,581 $ 9,052
Kennedy Capital Management Inc 2016-09-30 375,774 New Holding 375,774 $ 3,753 $ 3,753
Penn Mutual Life Insurance Co 2016-09-30 415,000 Added More 190,000 $ 1,898 $ 4,145
Raymond James Associates 2016-09-30 168,342 New Holding 168,342 $ 1,681 $ 1,681
Hodges Capital Management Inc 2016-09-30 100,000 New Holding 100,000 $ 999 $ 999
Kbc Group Nv 2016-09-30 84,021 New Holding 84,021 $ 839 $ 839
Global X Management Co Llc 2016-09-30 853,199 Added More 80,525 $ 804 $ 8,523
Legal General Group Plc 2016-09-30 187,953 Added More 74,205 $ 741 $ 1,877
Comerica Bank 2016-09-30 151,321 Added More 55,770 $ 557 $ 1,511
Doheny Asset Management Ca 2016-09-30 87,450 Added More 37,450 $ 374 $ 873
Cetera Advisor Networks Llc 2016-09-30 72,168 Added More 33,850 $ 338 $ 720
Hunter Associates Investment Management Llc 2016-09-30 25,000 New Holding 25,000 $ 249 $ 249
Pekin Singer Strauss Asset Management Il 2016-09-30 41,260 Added More 23,550 $ 235 $ 412
Td Asset Management Inc 2016-09-30 306,200 Added More 23,500 $ 234 $ 3,058
Verition Fund Management Llc 2016-09-30 21,824 New Holding 21,824 $ 218 $ 218
Indexiq Advisors Llc 2016-09-30 95,048 Added More 18,587 $ 185 $ 949
Stevens Capital Management Lp 2016-09-30 17,386 New Holding 17,386 $ 173 $ 173
Smith Graham Co Investment Advisors Lp 2016-09-30 552,042 Added More 16,090 $ 160 $ 5,514
Parametric Portfolio Associates Llc 2016-09-30 452,771 Added More 12,592 $ 125 $ 4,523
Miracle Mile Advisors Llc 2016-09-30 12,085 New Holding 12,085 $ 120 $ 120
Ares Management Llc 2016-09-30 12,000 New Holding 12,000 $ 119 $ 119
Mackenzie Financial Corp 2016-09-30 11,222 New Holding 11,222 $ 112 $ 112
New York State Common Retirement Fund 2016-09-30 99,700 Added More 10,400 $ 103 $ 996
Advisors Preferred Llc 2016-09-30 10,212 New Holding 10,212 $ 102 $ 102
Sei Investments Co 2016-09-30 42,829 Added More 9,283 $ 92 $ 427
Guggenheim Capital Llc 2016-09-30 184,247 Added More 7,515 $ 75 $ 1,840
Rothschild Asset Management Inc 2016-09-30 737,924 Added More 6,910 $ 69 $ 7,371
Sg Americas Securities Llc 2016-09-30 29,526 Added More 4,936 $ 49 $ 294
Van Eck Associates Corp 2016-09-30 304,028 Added More 4,707 $ 47 $ 3,037
Rhumbline Advisers 2016-09-30 154,378 Added More 4,575 $ 45 $ 1,542
Qs Investors Llc 2016-09-30 17,804 Added More 4,245 $ 42 $ 177
Carnick Kubik Group Llc 2016-09-30 96,229 Added More 3,853 $ 38 $ 961
Thompson Siegel Walmsley Llc 2016-09-30 34,250 Added More 3,850 $ 38 $ 342
Cg Asset Management Llc 2016-09-30 17,000 Added More 3,000 $ 29 $ 169
Teachers Advisors Inc 2016-09-30 157,646 Added More 2,950 $ 29 $ 1,574
Advisory Services Network Llc 2016-09-30 2,500 New Holding 2,500 $ 24 $ 24
Blackrock Investment Management Llc 2016-09-30 439,065 Added More 2,158 $ 21 $ 4,386
California State Teachers Retirement System 2016-09-30 202,198 Added More 1,600 $ 15 $ 2,019
Pnc Financial Services Group Inc 2016-09-30 7,600 Added More 1,528 $ 15 $ 75
Baird Financial Group Inc 2016-09-30 394,322 Added More 1,321 $ 13 $ 3,939
Commonwealth Bank Of Australia 2016-09-30 1,024 New Holding 1,024 $ 10 $ 10
Mason Street Advisors Llc 2016-09-30 19,761 Added More 1,004 $ 10 $ 197
Commonwealth Equity Services Inc 2016-09-30 14,522 Added More 992 $ 9 $ 145
Blackrock Inc 2016-09-30 32,882 Added More 884 $ 8 $ 328
Next Financial Group Inc 2016-09-30 1,183 Added More 783 $ 7 $ 11
Penserra Capital Management Llc 2016-09-30 1,381 Added More 385 $ 3 $ 13
First Premier Bank 2016-09-30 300 New Holding 300 $ 2 $ 2
Ladenburg Thalmann Financial Services Inc 2016-09-30 64,682 Added More 247 $ 2 $ 646
Arrowpoint Asset Management Llc 2016-09-30 132 New Holding 132 $ 1 $ 1
Hillsdale Investment Management Inc 2016-09-30 230 Added More 40 $ 0 $ 2
Pinebridge Investments L P 2016-09-30 12,204 Added More 35 $ 0 $ 121
Johnson Financial Group Inc 2016-09-30 1,170 Added More 27 $ 0 $ 11
Wellington Shields Capital Management Llc 2016-09-30 10,303 Added More 7 $ 0 $ 102
Gierl Augustine Investment Management Inc 2016-09-30 152 Added More 4 $ 0 $ 1
Bronfman E L Rothschild L P 2016-09-30 26 No Change 0 $ 0 $ 0
Synovus Financial Corp 2016-09-30 840 No Change 0 $ 0 $ 8
First Manhattan Co 2016-09-30 281 No Change 0 $ 0 $ 2
Howe Rusling Inc 2016-09-30 100 No Change 0 $ 0 $ 0
Orrstown Financial Services Inc 2016-09-30 500 No Change 0 $ 0 $ 4
Nisa Investment Advisors Llc 2016-09-30 58,000 No Change 0 $ 0 $ 579
Mufg Americas Holdings Corp 2016-09-30 1,533 No Change 0 $ 0 $ 15
Smithfield Trust Co 2016-09-30 1,500 No Change 0 $ 0 $ 14
Cibc Asset Management Inc 2016-09-30 12,098 No Change 0 $ 0 $ 120
Zurcher Kantonalbank Zurich Cantonalbank 2016-09-30 3,781 No Change 0 $ 0 $ 37
Hanson Doremus Investment Management 2016-09-30 1,245 No Change 0 $ 0 $ 12
Public Sector Pension Investment Board 2016-09-30 66,010 No Change 0 $ 0 $ 659
Wealthtrust Axiom Llc 2016-09-30 20,900 No Change 0 $ 0 $ 208
First Heartland Consultants Inc 2016-09-30 25,751 No Change 0 $ 0 $ 257
Confluence Investment Management Llc 2016-09-30 110,509 No Change 0 $ 0 $ 1,103
Quotient Investors Llc 2016-09-30 21,700 No Change 0 $ 0 $ 216
Ls Investment Advisors Llc 2016-09-30 3,405 No Change 0 $ 0 $ 34
State Of New Jersey Common Pension Fund D 2016-09-30 530,000 No Change 0 $ 0 $ 5,294
Jbf Capital Inc 2016-09-30 20,000 No Change 0 $ 0 $ 199
Highlander Capital Management Llc 2016-09-30 3,000 No Change 0 $ 0 $ 29
South Dakota Investment Council 2016-09-30 133,900 No Change 0 $ 0 $ 1,337
Focused Wealth Management Inc 2016-09-30 400 No Change 0 $ 0 $ 3
State Of Tennessee Treasury Department 2016-09-30 76,605 No Change 0 $ 0 $ 765
Telemus Capital Llc 2016-09-30 44,190 No Change 0 $ 0 $ 441
Paradice Investment Management Llc 2016-09-30 3,948,544 No Change 0 $ 0 $ 39,445
Integrated Wealth Management 2016-09-30 200 No Change 0 $ 0 $ 1
Quadrant Capital Group Llc 2016-09-30 263 No Change 0 $ 0 $ 2
Integrated Investment Consultants Llc 2016-09-30 3,350 No Change 0 $ 0 $ 33
Sheaff Brock Investment Advisors Llc 2016-09-30 14,950 No Change 0 $ 0 $ 149
Cribstone Capital Management Llc 2016-09-30 2,000 No Change 0 $ 0 $ 19
Camelot Portfolios Llc 2016-09-30 13,100 Sold Some -17 $ -0 $ 130
American International Group Inc 2016-09-30 71,120 Sold Some -42 $ -0 $ 710
Sterling Capital Management Llc 2016-09-30 71,010 Sold Some -135 $ -1 $ 709
Msi Financial Services Inc 2016-09-30 1,077 Sold Some -150 $ -1 $ 10
Arizona State Retirement System 2016-09-30 49,663 Sold Some -200 $ -1 $ 496
Texas Permanent School Fund 2016-09-30 73,124 Sold Some -240 $ -2 $ 730
Tower Research Capital Llc Trc 2016-09-30 2,300 Sold Some -555 $ -5 $ 22
Capstone Asset Management Co 2016-09-30 31,330 Sold Some -690 $ -6 $ 312
United Capital Financial Advisers Llc 2016-09-30 16,111 Sold Some -781 $ -7 $ 160
Us Bancorp De 2016-09-30 3,262 Sold Some -1,000 $ -9 $ 32
Pacad Investment Ltd 2016-09-30 10,100 Sold Some -1,000 $ -9 $ 100
Invictus Rg 2016-09-30 0 Sold All -1,044 $ -10 $ 0
Parkside Financial Bank Trust 2016-09-30 1,426 Sold Some -1,058 $ -10 $ 14
Strs Ohio 2016-09-30 30,700 Sold Some -1,100 $ -10 $ 306
Advisor Group Inc 2016-09-30 4,305 Sold Some -1,124 $ -11 $ 43
Envestnet Asset Management Inc 2016-09-30 14,805 Sold Some -1,286 $ -12 $ 147
New York State Teachers Retirement System 2016-09-30 83,350 Sold Some -1,300 $ -12 $ 832
Simplex Trading Llc 2016-09-30 0 Sold All -1,860 $ -18 $ 0
National Planning Corp 2016-09-30 26,175 Sold Some -2,100 $ -20 $ 261
Acrospire Investment Management Llc 2016-09-30 5,800 Sold Some -2,400 $ -23 $ 57
Proshare Advisors Llc 2016-09-30 11,335 Sold Some -2,500 $ -24 $ 113
Maple Capital Management Inc 2016-09-30 50,675 Sold Some -3,000 $ -29 $ 506
Teacher Retirement System Of Texas 2016-09-30 10,276 Sold Some -3,111 $ -31 $ 102
Cutler Group Lp 2016-09-30 12,940 Sold Some -3,165 $ -31 $ 129
Segall Bryant Hamill Llc 2016-09-30 193,426 Sold Some -3,200 $ -31 $ 1,932
Barnett Company Inc 2016-09-30 331,678 Sold Some -4,290 $ -42 $ 3,313
Swiss National Bank 2016-09-30 156,000 Sold Some -5,900 $ -58 $ 1,558
Creative Planning 2016-09-30 18,411 Sold Some -6,054 $ -60 $ 183
Shell Asset Management Co 2016-09-30 136,996 Sold Some -6,269 $ -62 $ 1,368
Teachers Retirement System Of The State Of Kentucky 2016-09-30 36,200 Sold Some -7,700 $ -76 $ 361
Profund Advisors Llc 2016-09-30 19,938 Sold Some -11,056 $ -110 $ 199
Beck Capital Management Llc 2016-09-30 0 Sold All -11,800 $ -117 $ 0
Sii Investments Inc Wi 2016-09-30 26,201 Sold Some -11,960 $ -119 $ 261
Ifc Holdings Incorporated Fl 2016-09-30 33,034 Sold Some -12,624 $ -126 $ 330
Two Sigma Securities Llc 2016-09-30 0 Sold All -14,590 $ -145 $ 0
Panagora Asset Management Inc 2016-09-30 0 Sold All -14,827 $ -148 $ 0
Haverford Trust Co 2016-09-30 0 Sold All -16,109 $ -160 $ 0
Affinity Investment Advisors Llc 2016-09-30 0 Sold All -16,462 $ -164 $ 0
Quantbot Technologies Lp 2016-09-30 25,498 Sold Some -16,592 $ -165 $ 254
Kcg Holdings Inc 2016-09-30 12,545 Sold Some -17,130 $ -171 $ 125
Systematic Financial Management Lp 2016-09-30 168,165 Sold Some -17,855 $ -178 $ 1,679
Tudor Investment Corp Et Al 2016-09-30 0 Sold All -18,312 $ -182 $ 0
Sippican Capital Advisors 2016-09-30 0 Sold All -18,425 $ -184 $ 0
Zacks Investment Management 2016-09-30 0 Sold All -19,184 $ -191 $ 0
Amp Capital Investors Ltd 2016-09-30 0 Sold All -23,300 $ -232 $ 0
Pdt Partners Llc 2016-09-30 0 Sold All -26,800 $ -267 $ 0
Peak6 Investments L P 2016-09-30 13,158 Sold Some -32,742 $ -327 $ 131
Northern Trust Corp 2016-09-30 2,709,907 Sold Some -33,982 $ -339 $ 27,071
Clinton Group Inc 2016-09-30 72,458 Sold Some -43,814 $ -437 $ 723
Aperio Group Llc 2016-09-30 522,129 Sold Some -47,595 $ -475 $ 5,216
Kestrel Investment Management Corp 2016-09-30 652,350 Sold Some -63,800 $ -637 $ 6,516
Nationwide Fund Advisors 2016-09-30 382,224 Sold Some -71,965 $ -718 $ 3,818
Menta Capital Llc 2016-09-30 18,098 Sold Some -105,282 $ -1,051 $ 180
Century Capital Management Llc 2016-09-30 0 Sold All -116,908 $ -1,167 $ 0
Crawford Investment Counsel Inc 2016-09-30 22,049 Sold Some -124,243 $ -1,241 $ 220
United Services Automobile Association 2016-09-30 48,090 Sold Some -124,390 $ -1,242 $ 480
Skandinaviska Enskilda Banken Ab Publ 2016-09-30 0 Sold All -130,200 $ -1,300 $ 0
Emerald Acquisition Ltd 2016-09-30 316,000 Sold Some -225,384 $ -2,251 $ 3,156
Wbi Investments Inc 2016-09-30 38,885 Sold Some -405,646 $ -4,052 $ 388